createdAt,value
2022-11-15T00:01:19.067Z,97671.00
2022-11-15T00:03:47.669Z,97667.31
2022-11-15T00:06:15.739Z,97672.00
2022-11-15T00:08:43.605Z,97670.34
2022-11-15T00:11:13.378Z,97690.16
2022-11-15T00:13:41.351Z,97670.34
2022-11-15T00:16:11.469Z,97691.16
2022-11-15T00:18:39.732Z,97681.41
2022-11-15T00:21:09.613Z,97686.38
2022-11-15T00:23:38.253Z,97674.25
2022-11-15T00:26:06.375Z,97677.28
2022-11-15T00:28:34.187Z,97671.16
2022-11-15T00:31:03.162Z,97652.28
2022-11-15T00:33:33.384Z,97643.84
2022-11-15T00:36:06.128Z,97672.81
2022-11-15T00:38:35.068Z,97647.84
2022-11-15T00:41:09.119Z,97673.97
2022-11-15T00:43:37.656Z,97664.22
2022-11-15T00:46:05.624Z,97661.75
2022-11-15T00:48:34.924Z,97650.47
2022-11-15T00:51:03.389Z,97628.00
2022-11-15T00:53:31.537Z,97656.63
2022-11-15T00:55:59.580Z,97666.03
2022-11-15T00:58:27.446Z,97617.75
2022-11-15T01:00:55.857Z,97623.03
2022-11-15T01:03:23.855Z,97604.88
2022-11-15T01:05:53.149Z,97592.97
2022-11-15T01:08:21.071Z,97610.16
2022-11-15T01:10:48.945Z,97563.91
2022-11-15T01:13:16.784Z,97581.06
2022-11-15T01:15:45.281Z,97569.16
2022-11-15T01:18:13.174Z,97576.78
2022-11-15T01:20:42.980Z,97566.19
2022-11-15T01:23:12.372Z,97560.44
2022-11-15T01:25:40.270Z,97556.13
2022-11-15T01:28:08.356Z,97564.72
2022-11-15T01:30:37.655Z,97526.03
2022-11-15T01:33:05.567Z,97563.91
2022-11-15T01:35:33.743Z,97534.63
2022-11-15T01:38:01.504Z,97519.09
2022-11-15T01:40:30.625Z,97554.47
2022-11-15T01:42:58.488Z,97521.75
2022-11-15T01:45:26.898Z,97494.50
2022-11-15T01:47:57.177Z,97499.75
2022-11-15T01:50:29.193Z,97521.06
2022-11-15T01:52:57.513Z,97487.41
2022-11-15T01:55:30.374Z,97495.16
2022-11-15T01:58:03.922Z,97492.53
2022-11-15T02:00:32.497Z,97474.69
2022-11-15T02:03:00.411Z,97484.91
2022-11-15T02:05:28.366Z,97471.38
2022-11-15T02:07:56.736Z,97471.53
2022-11-15T02:10:26.267Z,97489.38
2022-11-15T02:12:55.647Z,97468.06
2022-11-15T02:15:28.707Z,97473.84
2022-11-15T02:18:11.675Z,97430.09
2022-11-15T02:20:59.102Z,97438.69
2022-11-15T02:24:00.494Z,97408.47
2022-11-15T02:27:03.401Z,97420.66
2022-11-15T02:29:46.817Z,97393.94
2022-11-15T02:32:22.571Z,97383.88
2022-11-15T02:34:56.971Z,97358.94
2022-11-15T02:37:33.700Z,97383.88
2022-11-15T02:40:09.117Z,97383.88
2022-11-15T02:43:02.114Z,97351.19
2022-11-15T02:45:37.690Z,97345.38
2022-11-15T02:48:09.539Z,97361.59
2022-11-15T02:50:37.547Z,97362.41
2022-11-15T02:53:05.279Z,97363.41
2022-11-15T02:55:35.476Z,97340.94
2022-11-15T02:58:34.388Z,97333.19
2022-11-15T03:01:10.857Z,97324.38
2022-11-15T03:03:54.720Z,97317.00
2022-11-15T03:06:34.297Z,97302.47
2022-11-15T03:09:08.431Z,97291.25
2022-11-15T03:11:41.738Z,97290.59
2022-11-15T03:14:20.958Z,97279.22
2022-11-15T03:16:53.992Z,97293.06
2022-11-15T03:19:31.116Z,97262.88
2022-11-15T03:22:02.051Z,97281.03
2022-11-15T03:24:32.668Z,97242.34
2022-11-15T03:27:06.037Z,97259.59
2022-11-15T03:29:38.274Z,97262.06
2022-11-15T03:32:11.519Z,97274.09
2022-11-15T03:34:44.350Z,97293.06
2022-11-15T03:37:16.186Z,97286.13
2022-11-15T03:39:44.984Z,97297.34
2022-11-15T03:42:22.085Z,97263.72
2022-11-15T03:44:57.139Z,97260.41
2022-11-15T03:47:30.439Z,97262.06
2022-11-15T03:50:04.193Z,97266.34
2022-11-15T03:52:35.349Z,97262.06
2022-11-15T03:55:06.138Z,97245.91
2022-11-15T03:57:34.012Z,97238.00
2022-11-15T04:00:02.019Z,97245.75
2022-11-15T04:02:30.323Z,97259.59
2022-11-15T04:04:59.429Z,97252.66
2022-11-15T04:07:27.500Z,97244.91
2022-11-15T04:10:04.485Z,97255.13
2022-11-15T04:12:32.768Z,97229.41
2022-11-15T04:15:09.082Z,97237.50
2022-11-15T04:17:38.639Z,97221.16
2022-11-15T04:20:23.756Z,97203.19
2022-11-15T04:23:12.192Z,97208.97
2022-11-15T04:25:40.335Z,97202.88
2022-11-15T04:28:08.495Z,97211.63
2022-11-15T04:30:36.318Z,97228.09
2022-11-15T04:33:04.253Z,97228.75
2022-11-15T04:35:33.496Z,97204.03
2022-11-15T04:38:01.223Z,97201.56
2022-11-15T04:40:29.042Z,97240.78
2022-11-15T04:43:03.419Z,97238.16
2022-11-15T04:45:32.669Z,97214.25
2022-11-15T04:48:00.458Z,97212.28
2022-11-15T04:50:28.267Z,97234.69
2022-11-15T04:52:57.669Z,97238.97
2022-11-15T04:55:25.509Z,97226.13
2022-11-15T04:58:00.834Z,97233.88
2022-11-15T05:00:29.317Z,97260.41
2022-11-15T05:03:15.082Z,97239.97
2022-11-15T05:05:43.019Z,97274.94
2022-11-15T05:08:12.157Z,97250.19
2022-11-15T05:10:40.061Z,97231.38
2022-11-15T05:13:07.902Z,97255.13
2022-11-15T05:15:35.712Z,97253.50
2022-11-15T05:18:03.532Z,97259.59
2022-11-15T05:20:31.275Z,97289.91
2022-11-15T05:22:59.017Z,97276.56
2022-11-15T05:25:28.803Z,97271.78
2022-11-15T05:27:56.714Z,97237.31
2022-11-15T05:30:24.745Z,97220.34
2022-11-15T05:32:52.831Z,97228.91
2022-11-15T05:35:26.440Z,97234.69
2022-11-15T05:37:54.415Z,97238.31
2022-11-15T05:40:22.168Z,97248.53
2022-11-15T05:42:52.141Z,97243.59
2022-11-15T05:45:26.392Z,97234.69
2022-11-15T05:47:58.055Z,97231.38
2022-11-15T05:50:26.172Z,97242.59
2022-11-15T05:52:54.186Z,97259.44
2022-11-15T05:55:22.325Z,97258.09
2022-11-15T05:57:51.655Z,97237.31
2022-11-15T06:00:20.368Z,97248.22
2022-11-15T06:02:48.201Z,97262.06
2022-11-15T06:05:16.184Z,97272.59
2022-11-15T06:07:45.160Z,97261.41
2022-11-15T06:10:13.310Z,97286.13
2022-11-15T06:12:41.184Z,97296.38
2022-11-15T06:15:11.253Z,97294.72
2022-11-15T06:17:39.065Z,97304.94
2022-11-15T06:20:07.741Z,97317.69
2022-11-15T06:22:35.501Z,97340.94
2022-11-15T06:25:07.950Z,97353.13
2022-11-15T06:27:35.744Z,97322.13
2022-11-15T06:30:03.620Z,97326.03
2022-11-15T06:32:32.785Z,97346.22
2022-11-15T06:35:00.631Z,97351.47
2022-11-15T06:37:28.417Z,97356.75
2022-11-15T06:39:56.267Z,97369.34
2022-11-15T06:42:24.244Z,97377.91
2022-11-15T06:44:52.187Z,97383.19
2022-11-15T06:47:19.983Z,97389.81
2022-11-15T06:49:49.120Z,97372.81
2022-11-15T06:52:19.488Z,97372.41
2022-11-15T06:54:47.634Z,97371.97
2022-11-15T06:57:15.428Z,97378.59
2022-11-15T06:59:44.030Z,97358.13
2022-11-15T07:02:14.712Z,97333.34
2022-11-15T07:04:42.913Z,97329.06
2022-11-15T07:07:12.255Z,97322.28
2022-11-15T07:09:40.170Z,97303.28
2022-11-15T07:12:08.243Z,97294.72
2022-11-15T07:14:36.313Z,97314.53
2022-11-15T07:17:05.816Z,97296.38
2022-11-15T07:19:33.738Z,97310.91
2022-11-15T07:22:02.868Z,97332.50
2022-11-15T07:24:32.163Z,97336.13
2022-11-15T07:27:00.025Z,97351.19
2022-11-15T07:29:28.070Z,97328.22
2022-11-15T07:31:56.375Z,97313.56
2022-11-15T07:34:24.745Z,97309.25
2022-11-15T07:36:52.611Z,97280.19
2022-11-15T07:39:20.407Z,97215.91
2022-11-15T07:41:50.468Z,97174.66
2022-11-15T07:44:18.316Z,97223.81
2022-11-15T07:46:46.126Z,97245.22
2022-11-15T07:49:14.035Z,97295.53
2022-11-15T07:51:41.835Z,97310.91
2022-11-15T07:54:09.580Z,97339.28
2022-11-15T07:56:37.398Z,97367.53
2022-11-15T07:59:06.548Z,97425.94
2022-11-15T08:01:34.378Z,97423.47
2022-11-15T08:04:02.289Z,97462.78
2022-11-15T08:06:30.334Z,97479.97
2022-11-15T08:08:58.078Z,97505.72
2022-11-15T08:11:26.081Z,97546.16
2022-11-15T08:13:53.830Z,97572.47
2022-11-15T08:16:23.139Z,97588.00
2022-11-15T08:18:51.054Z,97559.59
2022-11-15T08:21:21.185Z,97490.19
2022-11-15T08:23:49.216Z,97434.56
2022-11-15T08:26:17.544Z,97394.09
2022-11-15T08:28:45.904Z,97411.25
2022-11-15T08:31:17.822Z,97459.47
2022-11-15T08:33:47.589Z,97503.06
2022-11-15T08:36:17.782Z,97527.84
2022-11-15T08:38:45.742Z,97546.72
2022-11-15T08:41:15.813Z,97595.78
2022-11-15T08:43:43.629Z,97630.97
2022-11-15T08:46:14.661Z,97672.31
2022-11-15T08:48:42.639Z,97687.53
2022-11-15T08:51:11.941Z,97751.34
2022-11-15T08:53:39.882Z,97741.75
2022-11-15T08:56:09.965Z,97754.66
2022-11-15T08:58:38.090Z,97785.44
2022-11-15T09:01:06.853Z,97775.31
2022-11-15T09:03:34.738Z,97770.03
2022-11-15T09:06:03.196Z,97785.59
2022-11-15T09:08:47.084Z,97809.75
2022-11-15T09:11:17.472Z,97783.78
2022-11-15T09:13:45.304Z,97777.69
2022-11-15T09:16:13.750Z,97785.44
2022-11-15T09:18:41.652Z,97799.34
2022-11-15T09:21:10.682Z,97801.00
2022-11-15T09:23:40.305Z,97835.09
2022-11-15T09:26:08.760Z,97875.94
2022-11-15T09:28:37.734Z,97867.31
2022-11-15T09:31:07.689Z,97837.06
2022-11-15T09:33:35.961Z,97845.66
2022-11-15T09:36:06.406Z,97814.88
2022-11-15T09:38:35.249Z,97789.34
2022-11-15T09:41:39.610Z,97811.25
2022-11-15T09:44:25.670Z,97802.97
2022-11-15T09:47:22.296Z,97836.22
2022-11-15T09:49:57.894Z,97823.47
2022-11-15T09:52:26.737Z,97775.88
2022-11-15T09:54:56.345Z,97772.47
2022-11-15T09:57:33.450Z,97743.41
2022-11-15T10:03:14.999Z,97787.25
2022-11-15T10:05:45.469Z,97840.69
2022-11-15T10:08:42.121Z,97862.88
2022-11-15T10:14:04.749Z,97979.75
2022-11-15T10:17:11.774Z,98081.47
2022-11-15T10:19:49.782Z,98185.97
2022-11-15T10:22:26.718Z,98239.69
2022-11-15T10:25:12.055Z,98256.84
2022-11-15T10:27:42.248Z,98212.13
2022-11-15T10:30:16.939Z,98150.44
2022-11-15T10:32:46.955Z,98184.63
2022-11-15T10:35:24.983Z,98220.75
2022-11-15T10:37:53.523Z,98207.97
2022-11-15T10:40:24.295Z,98199.06
2022-11-15T10:43:07.988Z,98186.28
2022-11-15T10:45:38.188Z,98129.56
2022-11-15T10:48:27.243Z,98118.16
2022-11-15T10:50:57.014Z,98110.66
2022-11-15T10:53:31.652Z,98039.09
2022-11-15T10:56:04.291Z,98055.34
2022-11-15T10:58:41.942Z,98082.78
2022-11-15T11:01:18.106Z,98144.00
2022-11-15T11:03:47.287Z,98164.72
2022-11-15T11:06:17.311Z,98162.91
2022-11-15T11:08:57.360Z,98126.22
2022-11-15T11:11:25.768Z,98011.44
2022-11-15T11:13:54.452Z,97985.72
2022-11-15T11:16:50.712Z,97972.81
2022-11-15T11:19:46.717Z,97938.69
2022-11-15T11:22:21.792Z,97909.25
2022-11-15T11:24:59.309Z,97926.47
2022-11-15T11:27:39.285Z,97912.56
2022-11-15T11:30:17.176Z,97900.63
2022-11-15T11:33:07.903Z,97892.03
2022-11-15T11:35:46.314Z,97841.19
2022-11-15T11:38:26.148Z,97850.13
2022-11-15T11:41:04.785Z,97863.53
2022-11-15T11:43:41.894Z,97872.16
2022-11-15T11:46:38.206Z,97873.13
2022-11-15T11:49:11.935Z,97890.06
2022-11-15T11:51:44.173Z,97913.38
2022-11-15T11:54:16.450Z,97954.75
2022-11-15T11:56:46.564Z,97936.50
2022-11-15T11:59:23.432Z,97914.22
2022-11-15T12:01:52.939Z,97865.34
2022-11-15T12:04:28.047Z,97883.69
2022-11-15T12:07:01.703Z,97885.91
2022-11-15T12:09:34.589Z,97907.28
2022-11-15T12:12:08.785Z,97925.31
2022-11-15T12:14:44.710Z,97904.63
2022-11-15T12:17:13.626Z,97785.97
2022-11-15T12:19:43.880Z,97753.50
2022-11-15T12:22:18.803Z,97780.16
2022-11-15T12:24:52.463Z,97775.72
2022-11-15T12:27:28.847Z,97771.56
2022-11-15T12:30:00.797Z,97788.59
2022-11-15T12:32:31.607Z,97789.59
2022-11-15T12:35:02.328Z,97798.03
2022-11-15T12:37:50.263Z,97765.56
2022-11-15T12:40:25.381Z,97803.16
2022-11-15T12:43:28.137Z,97786.78
2022-11-15T12:45:56.016Z,97791.09
2022-11-15T12:48:53.418Z,97788.75
2022-11-15T12:52:09.497Z,97754.34
2022-11-15T12:54:58.145Z,97730.19
2022-11-15T12:57:41.030Z,97703.56
2022-11-15T13:00:45.905Z,97704.25
2022-11-15T13:03:34.799Z,97722.44
2022-11-15T13:06:31.154Z,97701.09
2022-11-15T13:09:00.608Z,97702.75
2022-11-15T13:11:53.611Z,97697.78
2022-11-15T13:14:51.782Z,97708.84
2022-11-15T13:17:29.125Z,97653.81
2022-11-15T13:20:04.834Z,97629.50
2022-11-15T13:22:55.574Z,97656.16
2022-11-15T13:25:42.776Z,97620.91
2022-11-15T13:28:20.967Z,97591.00
2022-11-15T13:30:53.984Z,97583.09
2022-11-15T13:33:25.062Z,97579.09
2022-11-15T13:35:56.993Z,97561.59
2022-11-15T13:38:30.267Z,97537.66
2022-11-15T13:41:01.441Z,97507.56
2022-11-15T13:43:37.640Z,97492.34
2022-11-15T13:46:12.860Z,97447.31
2022-11-15T13:48:41.451Z,97415.63
2022-11-15T13:51:21.499Z,97402.75
2022-11-15T13:53:54.439Z,97357.47
2022-11-15T13:56:24.180Z,97338.69
2022-11-15T13:58:52.420Z,97326.75
2022-11-15T14:01:23.513Z,97268.34
2022-11-15T14:03:59.391Z,97298.22
2022-11-15T14:06:29.439Z,97251.19
2022-11-15T14:09:04.932Z,97244.28
2022-11-15T14:11:34.435Z,97254.50
2022-11-15T14:14:14.970Z,97263.91
2022-11-15T14:16:44.656Z,97274.97
2022-11-15T14:19:14.480Z,97247.56
2022-11-15T14:22:16.957Z,97247.56
2022-11-15T14:24:47.346Z,97241.63
2022-11-15T14:27:28.210Z,97230.59
2022-11-15T14:29:56.260Z,97226.47
2022-11-15T14:32:27.342Z,97209.97
2022-11-15T14:34:57.937Z,97184.25
2022-11-15T14:37:27.709Z,97165.47
2022-11-15T14:39:56.749Z,97156.88
2022-11-15T14:42:26.516Z,97186.91
2022-11-15T14:44:54.385Z,97194.47
2022-11-15T14:47:22.655Z,97165.47
2022-11-15T14:49:50.697Z,97154.09
2022-11-15T14:52:36.604Z,97185.09
2022-11-15T14:55:12.347Z,97155.56
2022-11-15T14:57:41.899Z,97156.88
2022-11-15T15:00:10.982Z,97163.50
2022-11-15T15:02:39.210Z,97135.28
2022-11-15T15:05:16.393Z,97133.63
2022-11-15T15:07:44.841Z,97142.22
2022-11-15T15:13:03.081Z,97148.31
2022-11-15T15:15:35.349Z,97162.00
2022-11-15T15:18:03.570Z,97156.06
2022-11-15T15:20:31.696Z,97161.84
2022-11-15T15:22:59.627Z,97154.25
2022-11-15T15:25:34.775Z,97118.16
2022-11-15T15:28:04.526Z,97110.72
2022-11-15T15:30:32.991Z,97121.63
2022-11-15T15:33:01.445Z,97096.91
2022-11-15T15:35:33.983Z,97087.50
2022-11-15T15:38:02.250Z,97083.06
2022-11-15T15:40:31.987Z,97050.63
2022-11-15T15:43:00.368Z,97032.78
2022-11-15T15:45:30.648Z,97072.03
2022-11-15T15:47:58.612Z,97071.88
2022-11-15T15:50:28.174Z,97077.78
2022-11-15T15:52:58.524Z,97071.88
2022-11-15T15:55:27.543Z,97042.19
2022-11-15T15:57:55.985Z,97063.94
2022-11-15T16:00:26.002Z,97053.09
2022-11-15T16:02:55.779Z,97078.78
2022-11-15T16:05:24.003Z,97069.22
2022-11-15T16:07:52.266Z,97086.34
2022-11-15T16:10:23.707Z,97090.81
2022-11-15T16:12:51.919Z,97096.72
2022-11-15T16:15:20.481Z,97073.50
2022-11-15T16:17:52.166Z,97060.66
2022-11-15T16:20:33.524Z,97070.88
2022-11-15T16:23:09.001Z,97099.22
2022-11-15T16:25:44.202Z,97072.53
2022-11-15T16:28:23.555Z,97076.81
2022-11-15T16:31:00.914Z,97100.19
2022-11-15T16:33:29.047Z,97103.50
2022-11-15T16:35:58.388Z,97084.38
2022-11-15T16:38:26.113Z,97076.66
2022-11-15T16:40:53.958Z,97091.63
2022-11-15T16:43:21.810Z,97105.13
2022-11-15T16:45:51.205Z,97085.03
2022-11-15T16:48:25.196Z,97091.31
2022-11-15T16:50:57.099Z,97100.69
2022-11-15T16:53:26.955Z,97079.44
2022-11-15T16:55:55.686Z,97063.97
2022-11-15T16:58:23.663Z,97081.09
2022-11-15T17:00:53.163Z,97047.66
2022-11-15T17:03:21.739Z,97074.16
2022-11-15T17:05:49.613Z,97074.16
2022-11-15T17:08:17.467Z,97075.00
2022-11-15T17:10:46.656Z,97074.16
2022-11-15T17:13:15.233Z,97077.47
2022-11-15T17:15:43.294Z,97074.84
2022-11-15T17:18:14.150Z,97075.16
2022-11-15T17:20:42.835Z,97042.38
2022-11-15T17:23:14.995Z,97067.56
2022-11-15T17:25:43.367Z,97050.13
2022-11-15T17:28:12.946Z,97060.34
2022-11-15T17:30:43.284Z,97071.69
2022-11-15T17:33:11.514Z,97053.56
2022-11-15T17:35:39.266Z,97064.63
2022-11-15T17:38:07.173Z,97057.88
2022-11-15T17:40:35.008Z,97037.44
2022-11-15T17:43:03.183Z,97036.28
2022-11-15T17:45:32.575Z,97031.34
2022-11-15T17:48:00.358Z,97041.56
2022-11-15T17:50:28.539Z,97072.53
2022-11-15T17:52:57.373Z,97056.88
2022-11-15T17:55:25.332Z,97031.34
2022-11-15T17:57:53.131Z,97028.88
2022-11-15T18:00:21.842Z,97039.91
2022-11-15T18:02:51.061Z,97053.41
2022-11-15T18:05:19.600Z,97074.66
2022-11-15T18:07:48.094Z,97076.47
2022-11-15T18:10:16.367Z,97087.84
2022-11-15T18:12:44.140Z,97068.91
2022-11-15T18:15:12.010Z,97063.63
2022-11-15T18:17:39.990Z,97099.03
2022-11-15T18:20:10.139Z,97074.84
2022-11-15T18:22:38.165Z,97080.09
2022-11-15T18:25:06.952Z,97045.19
2022-11-15T18:27:35.191Z,97040.72
2022-11-15T18:30:03.101Z,97044.03
2022-11-15T18:32:30.888Z,97055.38
2022-11-15T18:34:58.814Z,97050.94
2022-11-15T18:37:28.164Z,97053.75
2022-11-15T18:39:56.598Z,97020.81
2022-11-15T18:42:24.659Z,97014.50
2022-11-15T18:44:52.464Z,97023.59
2022-11-15T18:47:20.250Z,97012.25
2022-11-15T18:49:48.215Z,97009.25
2022-11-15T18:52:16.050Z,96978.28
2022-11-15T18:54:45.431Z,96986.69
2022-11-15T18:57:13.246Z,96992.78
2022-11-15T18:59:41.110Z,97009.25
2022-11-15T19:02:12.301Z,97015.00
2022-11-15T19:04:40.647Z,96984.22
2022-11-15T19:07:08.504Z,96995.41
2022-11-15T19:09:36.439Z,96957.56
2022-11-15T19:12:06.414Z,96971.38
2022-11-15T19:14:34.226Z,96987.69
2022-11-15T19:17:02.029Z,96972.19
2022-11-15T19:19:29.920Z,96994.44
2022-11-15T19:21:58.358Z,96999.53
2022-11-15T19:24:27.297Z,97001.00
2022-11-15T19:26:55.885Z,97004.47
2022-11-15T19:29:25.234Z,96997.56
2022-11-15T19:31:53.043Z,96999.53
2022-11-15T19:34:20.943Z,96984.88
2022-11-15T19:36:48.959Z,96997.06
2022-11-15T19:39:18.493Z,96971.38
2022-11-15T19:41:46.868Z,96968.75
2022-11-15T19:44:15.310Z,96964.47
2022-11-15T19:46:45.310Z,96955.91
2022-11-15T19:49:13.207Z,96933.84
2022-11-15T19:51:45.228Z,96944.06
2022-11-15T19:54:13.639Z,96937.97
2022-11-15T19:56:41.479Z,96911.13
2022-11-15T19:59:11.583Z,96926.59
2022-11-15T20:01:39.866Z,96947.00
2022-11-15T20:04:10.837Z,96930.72
2022-11-15T20:06:40.516Z,96928.25
2022-11-15T20:09:08.422Z,96941.25
2022-11-15T20:11:38.223Z,96935.16
2022-11-15T20:14:06.831Z,96929.91
2022-11-15T20:16:34.776Z,96936.97
2022-11-15T20:19:02.962Z,96897.59
2022-11-15T20:21:32.538Z,96908.66
2022-11-15T20:24:00.510Z,96897.63
2022-11-15T20:26:29.165Z,96866.66
2022-11-15T20:29:01.244Z,96855.00
2022-11-15T20:31:29.748Z,96844.63
2022-11-15T20:33:57.568Z,96859.09
2022-11-15T20:36:25.433Z,96835.25
2022-11-15T20:38:57.671Z,96840.19
2022-11-15T20:41:25.549Z,96825.88
2022-11-15T20:43:53.648Z,96804.66
2022-11-15T20:46:21.635Z,96781.44
2022-11-15T20:48:49.449Z,96776.16
2022-11-15T20:51:19.354Z,96751.66
2022-11-15T20:53:48.422Z,96749.84
2022-11-15T20:56:19.822Z,96759.06
2022-11-15T20:58:50.192Z,96812.38
2022-11-15T21:01:23.925Z,96788.50
2022-11-15T21:03:52.962Z,96803.50
2022-11-15T21:06:21.259Z,96812.06
2022-11-15T21:09:07.882Z,96801.03
2022-11-15T21:11:54.938Z,96840.19
2022-11-15T21:14:23.340Z,96838.53
2022-11-15T21:16:51.281Z,96820.44
2022-11-15T21:19:22.749Z,96786.41
2022-11-15T21:21:55.114Z,96785.41
2022-11-15T21:24:24.632Z,96797.41
2022-11-15T21:26:54.639Z,96819.63
2022-11-15T21:29:23.113Z,96815.50
2022-11-15T21:31:52.883Z,96816.50
2022-11-15T21:34:21.502Z,96794.28
2022-11-15T21:36:49.348Z,96784.06
2022-11-15T21:39:17.391Z,96762.34
2022-11-15T21:41:45.322Z,96766.63
2022-11-15T21:44:14.804Z,96774.53
2022-11-15T21:46:42.829Z,96769.25
2022-11-15T21:49:10.966Z,96759.06
2022-11-15T21:51:39.200Z,96759.06
2022-11-15T21:54:07.199Z,96744.59
2022-11-15T21:56:35.213Z,96755.44
2022-11-15T21:59:03.127Z,96760.72
2022-11-15T22:01:49.983Z,96767.63
2022-11-15T22:04:18.687Z,96755.44
2022-11-15T22:06:46.726Z,96759.06
2022-11-15T22:09:14.666Z,96764.81
2022-11-15T22:11:43.168Z,96745.25
2022-11-15T22:14:11.268Z,96765.63
2022-11-15T22:16:40.633Z,96738.69
2022-11-15T22:19:08.905Z,96732.59
2022-11-15T22:21:38.059Z,96736.69
2022-11-15T22:24:06.825Z,96733.41
2022-11-15T22:26:34.627Z,96754.97
2022-11-15T22:29:02.841Z,96760.53
2022-11-15T22:31:30.702Z,96748.53
2022-11-15T22:33:59.892Z,96744.59
2022-11-15T22:36:38.655Z,96727.34
2022-11-15T22:39:15.088Z,96733.09
2022-11-15T22:41:44.185Z,96734.06
2022-11-15T22:44:12.061Z,96725.03
2022-11-15T22:46:41.013Z,96712.69
2022-11-15T22:49:10.360Z,96725.69
2022-11-15T22:51:40.466Z,96712.03
2022-11-15T22:54:08.629Z,96691.81
2022-11-15T22:56:36.471Z,96718.78
2022-11-15T22:59:04.323Z,96708.44
2022-11-15T23:01:32.210Z,96696.41
2022-11-15T23:04:00.190Z,96700.03
2022-11-15T23:06:29.565Z,96698.22
2022-11-15T23:08:57.339Z,96682.63
2022-11-15T23:11:42.603Z,96687.88
2022-11-15T23:14:10.790Z,96695.59
2022-11-15T23:16:39.803Z,96698.06
2022-11-15T23:19:10.060Z,96674.06
2022-11-15T23:21:58.866Z,96676.69
2022-11-15T23:24:38.918Z,96697.56
2022-11-15T23:27:08.640Z,96698.06
2022-11-15T23:29:58.360Z,96673.25
2022-11-15T23:32:44.694Z,96668.66
2022-11-15T23:35:12.577Z,96693.97
2022-11-15T23:37:41.831Z,96676.69
2022-11-15T23:40:11.319Z,96669.97
2022-11-15T23:42:39.163Z,96675.88
2022-11-15T23:45:08.042Z,96679.31
2022-11-15T23:47:35.860Z,96675.06
2022-11-15T23:50:04.207Z,96693.97
2022-11-15T23:52:32.680Z,96697.25
2022-11-15T23:55:01.877Z,96687.88
2022-11-15T23:57:29.670Z,96678.50
